Time;durP1;ratioP1;P1;durP2;ratioP2;P2;SDS_P1;SDS_P2;PMS_P1;PMS_P2;Temp;Humidity;BMP_temperature;BMP_pressure;BME280_temperature;BME280_humidity;BME280_pressure;Samples;Min_cycle;Max_cycle;Signal;HPM_P1;HPM_P2
2024/03/31 00:01:21;;;;;;;;;;;;;;;;;;5040298;28;20369;-74
2024/03/31 00:03:48;;;;;;;;;;;;;;;;;;5046848;28;20006;-74
2024/03/31 00:06:14;;;;;;;;;;;;;;;;;;5050311;28;19933;-74
2024/03/31 00:08:41;;;;;;;;;;;;;;;;;;5053049;28;19929;-73
2024/03/31 00:11:07;;;;;;;;;;;;;;;;;;5038757;28;19925;-72
2024/03/31 00:13:34;;;;;;;;;;;;;;;;;;5047036;28;19936;-72
2024/03/31 00:16:00;;;;;;;;;;;;;;;;;;5056252;28;19928;-73
2024/03/31 00:18:27;;;;;;;;;;;;;;;;;;5050616;28;19929;-74
2024/03/31 00:20:53;;;;;;;;;;;;;;;;;;5048235;28;20199;-71
2024/03/31 00:23:20;;;;;;;;;;;;;;;;;;5050561;28;20388;-74
2024/03/31 00:25:46;;;;;;;;;;;;;;;;;;5047813;28;19959;-72
2024/03/31 00:28:13;;;;;;;;;;;;;;;;;;5046317;28;19940;-73
2024/03/31 00:30:39;;;;;;;;;;;;;;;;;;5050687;28;19928;-74
2024/03/31 00:33:06;;;;;;;;;;;;;;;;;;5050443;28;19939;-73
2024/03/31 00:35:33;;;;;;;;;;;;;;;;;;5048297;28;20384;-72
2024/03/31 00:38:00;;;;;;;;;;;;;;;;;;5046237;28;19935;-73
2024/03/31 00:40:26;;;;;;;;;;;;;;;;;;5046628;28;19938;-73
2024/03/31 00:42:53;;;;;;;;;;;;;;;;;;5047827;28;19929;-74
2024/03/31 00:45:19;;;;;;;;;;;;;;;;;;5046460;28;19958;-72
2024/03/31 00:47:46;;;;;;;;;;;;;;;;;;5050060;28;19929;-73
2024/03/31 00:50:12;;;;;;;;;;;;;;;;;;5050358;28;19929;-74
2024/03/31 00:52:39;;;;;;;;;;;;;;;;;;5046454;28;19985;-71
2024/03/31 00:55:05;;;;;;;;;;;;;;;;;;5048656;28;19940;-72
2024/03/31 00:57:33;;;;;;;;;;;;;;;;;;5049399;28;19932;-73
2024/03/31 00:59:59;;;;;;;;;;;;;;;;;;5049129;28;19929;-72
2024/03/31 01:02:26;;;;;;;;;;;;;;;;;;5045618;28;19937;-73
2024/03/31 01:04:52;;;;;;;;;;;;;;;;;;5049553;28;19929;-72
2024/03/31 01:07:19;;;;;;;;;;;;;;;;;;5052062;28;19929;-73
2024/03/31 01:09:45;;;;;;;;;;;;;;;;;;5045145;28;19929;-72
2024/03/31 01:12:12;;;;;;;;;;;;;;;;;;5048283;28;19929;-73
2024/03/31 01:14:38;;;;;;;;;;;;;;;;;;5047593;28;19938;-71
2024/03/31 01:17:05;;;;;;;;;;;;;;;;;;5049772;28;19933;-72
2024/03/31 01:19:31;;;;;;;;;;;;;;;;;;5048326;28;19928;-74
2024/03/31 01:21:58;;;;;;;;;;;;;;;;;;5040604;28;19929;-72
2024/03/31 01:24:25;;;;;;;;;;;;;;;;;;5041554;28;19933;-73
2024/03/31 01:26:52;;;;;;;;;;;;;;;;;;5042758;28;20455;-71
2024/03/31 01:29:18;;;;;;;;;;;;;;;;;;5043740;28;19932;-72
2024/03/31 01:31:45;;;;;;;;;;;;;;;;;;5049322;28;20027;-71
2024/03/31 01:34:11;;;;;;;;;;;;;;;;;;5046947;28;19929;-73
2024/03/31 01:36:38;;;;;;;;;;;;;;;;;;5047574;28;19928;-71
2024/03/31 01:39:04;;;;;;;;;;;;;;;;;;5048865;28;19933;-73
2024/03/31 01:41:31;;;;;;;;;;;;;;;;;;5048095;28;19928;-74
2024/03/31 01:43:57;;;;;;;;;;;;;;;;;;5049643;28;19929;-73
2024/03/31 01:46:24;;;;;;;;;;;;;;;;;;5049059;28;19929;-72
2024/03/31 01:48:50;;;;;;;;;;;;;;;;;;5050628;28;20066;-72
2024/03/31 01:51:17;;;;;;;;;;;;;;;;;;5048181;28;20354;-73
2024/03/31 01:53:43;;;;;;;;;;;;;;;;;;5046066;28;20407;-73
2024/03/31 01:56:10;;;;;;;;;;;;;;;;;;5047934;28;19929;-73
2024/03/31 01:58:36;;;;;;;;;;;;;;;;;;5047437;28;20360;-73
2024/03/31 02:01:03;;;;;;;;;;;;;;;;;;5047702;28;20299;-71
2024/03/31 02:03:29;;;;;;;;;;;;;;;;;;5046441;28;19964;-72
2024/03/31 02:05:56;;;;;;;;;;;;;;;;;;5046821;28;19929;-73
2024/03/31 02:08:22;;;;;;;;;;;;;;;;;;5048921;28;20006;-73
2024/03/31 02:10:49;;;;;;;;;;;;;;;;;;5044641;28;19929;-72
2024/03/31 02:13:16;;;;;;;;;;;;;;;;;;5045153;28;20620;-71
2024/03/31 02:15:43;;;;;;;;;;;;;;;;;;5046190;28;19958;-74
2024/03/31 02:18:09;;;;;;;;;;;;;;;;;;5041314;28;19929;-72
2024/03/31 02:20:38;;;;;;;;;;;;;;;;;;5046166;28;19955;-73
2024/03/31 02:23:04;;;;;;;;;;;;;;;;;;5046019;28;19940;-73
2024/03/31 02:25:35;;;;;;;;;;;;;;;;;;5045194;28;19929;-73
2024/03/31 02:28:02;;;;;;;;;;;;;;;;;;5047167;28;19928;-73
2024/03/31 02:30:29;;;;;;;;;;;;;;;;;;5047533;28;20323;-74
2024/03/31 02:32:55;;;;;;;;;;;;;;;;;;5048448;28;19983;-73
2024/03/31 02:35:23;;;;;;;;;;;;;;;;;;5047717;28;19990;-73
2024/03/31 02:37:49;;;;;;;;;;;;;;;;;;5045629;28;19931;-73
2024/03/31 02:40:16;;;;;;;;;;;;;;;;;;5048625;28;19933;-72
2024/03/31 02:42:42;;;;;;;;;;;;;;;;;;5043332;28;19994;-73
2024/03/31 02:45:09;;;;;;;;;;;;;;;;;;5046144;28;20059;-72
2024/03/31 02:47:35;;;;;;;;;;;;;;;;;;5042966;28;20665;-74
2024/03/31 02:50:02;;;;;;;;;;;;;;;;;;5042436;28;20055;-74
2024/03/31 02:52:28;;;;;;;;;;;;;;;;;;5042860;28;19929;-73
2024/03/31 02:54:55;;;;;;;;;;;;;;;;;;5043503;28;19937;-74
2024/03/31 02:57:21;;;;;;;;;;;;;;;;;;5051323;28;19929;-74
2024/03/31 02:59:48;;;;;;;;;;;;;;;;;;5044313;28;19928;-72
2024/03/31 03:02:14;;;;;;;;;;;;;;;;;;5046889;28;19932;-72
2024/03/31 03:04:41;;;;;;;;;;;;;;;;;;5045603;28;19933;-73
2024/03/31 03:07:07;;;;;;;;;;;;;;;;;;5045261;28;19936;-72
2024/03/31 03:09:34;;;;;;;;;;;;;;;;;;5037941;28;19929;-72
2024/03/31 03:12:00;;;;;;;;;;;;;;;;;;5040083;28;19974;-74
2024/03/31 03:14:27;;;;;;;;;;;;;;;;;;5045418;28;19936;-75
2024/03/31 03:16:53;;;;;;;;;;;;;;;;;;5038912;28;19925;-72
2024/03/31 03:19:20;;;;;;;;;;;;;;;;;;5042689;28;19937;-72
2024/03/31 03:21:46;;;;;;;;;;;;;;;;;;5045199;28;19972;-71
2024/03/31 03:24:13;;;;;;;;;;;;;;;;;;5044803;28;20054;-71
2024/03/31 03:26:39;;;;;;;;;;;;;;;;;;5040975;28;19968;-71
2024/03/31 03:29:06;;;;;;;;;;;;;;;;;;5042404;28;19975;-71
2024/03/31 03:31:32;;;;;;;;;;;;;;;;;;5049062;28;19990;-71
2024/03/31 03:33:59;;;;;;;;;;;;;;;;;;5047135;28;19929;-71
2024/03/31 03:36:25;;;;;;;;;;;;;;;;;;5048528;28;20025;-72
2024/03/31 03:38:52;;;;;;;;;;;;;;;;;;5048352;28;19928;-72
2024/03/31 03:41:19;;;;;;;;;;;;;;;;;;5045954;28;19929;-72
2024/03/31 03:43:46;;;;;;;;;;;;;;;;;;5048033;28;19933;-72
2024/03/31 03:46:12;;;;;;;;;;;;;;;;;;5046247;28;19932;-72
2024/03/31 03:48:39;;;;;;;;;;;;;;;;;;5049047;28;19975;-72
2024/03/31 03:51:05;;;;;;;;;;;;;;;;;;5047388;28;20439;-72
2024/03/31 03:53:32;;;;;;;;;;;;;;;;;;5048361;28;19964;-72
2024/03/31 03:55:58;;;;;;;;;;;;;;;;;;5047363;28;19982;-72
2024/03/31 03:58:25;;;;;;;;;;;;;;;;;;5047821;28;19928;-72
2024/03/31 04:00:52;;;;;;;;;;;;;;;;;;5045988;28;19976;-72
2024/03/31 04:03:19;;;;;;;;;;;;;;;;;;5048537;28;19955;-72
2024/03/31 04:05:45;;;;;;;;;;;;;;;;;;5048075;28;19975;-73
2024/03/31 04:08:12;;;;;;;;;;;;;;;;;;5053805;28;19933;-72
2024/03/31 04:10:38;;;;;;;;;;;;;;;;;;5048246;28;20019;-73
2024/03/31 04:13:05;;;;;;;;;;;;;;;;;;5048699;28;19929;-72
2024/03/31 04:15:31;;;;;;;;;;;;;;;;;;5047885;28;19983;-72
2024/03/31 04:17:58;;;;;;;;;;;;;;;;;;5046357;28;19933;-71
2024/03/31 04:20:24;;;;;;;;;;;;;;;;;;5050454;28;19951;-72
2024/03/31 04:22:51;;;;;;;;;;;;;;;;;;5048535;28;19971;-71
2024/03/31 04:25:17;;;;;;;;;;;;;;;;;;5044012;28;20059;-72
2024/03/31 04:27:44;;;;;;;;;;;;;;;;;;5047840;28;19964;-72
2024/03/31 04:30:10;;;;;;;;;;;;;;;;;;5048424;28;20381;-70
2024/03/31 04:32:37;;;;;;;;;;;;;;;;;;5047496;28;20475;-72
2024/03/31 04:35:03;;;;;;;;;;;;;;;;;;5051291;28;19936;-72
2024/03/31 04:37:30;;;;;;;;;;;;;;;;;;5048210;28;19983;-73
2024/03/31 04:39:56;;;;;;;;;;;;;;;;;;5048931;28;19979;-72
2024/03/31 04:42:23;;;;;;;;;;;;;;;;;;5048030;28;20315;-72
2024/03/31 04:44:49;;;;;;;;;;;;;;;;;;5048369;28;19925;-72
2024/03/31 04:47:16;;;;;;;;;;;;;;;;;;5048311;28;20149;-72
2024/03/31 04:49:42;;;;;;;;;;;;;;;;;;5048350;28;19972;-72
2024/03/31 04:52:09;;;;;;;;;;;;;;;;;;5055397;28;19935;-72
2024/03/31 04:54:35;;;;;;;;;;;;;;;;;;5068622;28;20024;-72
2024/03/31 04:57:02;;;;;;;;;;;;;;;;;;5051857;28;19935;-72
2024/03/31 04:59:28;;;;;;;;;;;;;;;;;;5048251;28;20372;-72
2024/03/31 05:01:55;;;;;;;;;;;;;;;;;;5056339;28;19960;-71
2024/03/31 05:04:21;;;;;;;;;;;;;;;;;;5051145;28;19975;-71
2024/03/31 05:06:48;;;;;;;;;;;;;;;;;;5051213;28;19960;-72
2024/03/31 05:09:14;;;;;;;;;;;;;;;;;;5050782;28;19936;-72
2024/03/31 05:11:41;;;;;;;;;;;;;;;;;;5051389;28;19982;-72
2024/03/31 05:14:07;;;;;;;;;;;;;;;;;;5061222;28;19979;-72
2024/03/31 05:16:34;;;;;;;;;;;;;;;;;;5052383;28;19974;-72
2024/03/31 05:19:00;;;;;;;;;;;;;;;;;;5050674;28;20343;-72
2024/03/31 05:21:27;;;;;;;;;;;;;;;;;;5066854;28;19929;-72
2024/03/31 05:23:53;;;;;;;;;;;;;;;;;;5058049;28;19933;-72
2024/03/31 05:26:21;;;;;;;;;;;;;;;;;;5051005;28;19929;-72
2024/03/31 05:28:47;;;;;;;;;;;;;;;;;;5055535;28;19975;-73
2024/03/31 05:31:14;;;;;;;;;;;;;;;;;;5057657;28;19935;-73
2024/03/31 05:33:40;;;;;;;;;;;;;;;;;;5051535;28;19990;-73
2024/03/31 05:36:07;;;;;;;;;;;;;;;;;;5042528;28;19976;-73
2024/03/31 05:38:33;;;;;;;;;;;;;;;;;;5050979;28;20334;-73
2024/03/31 05:41:01;;;;;;;;;;;;;;;;;;5049235;28;20289;-73
2024/03/31 05:43:27;;;;;;;;;;;;;;;;;;5054354;28;19929;-73
2024/03/31 05:45:54;;;;;;;;;;;;;;;;;;5056044;28;20363;-73
2024/03/31 05:48:20;;;;;;;;;;;;;;;;;;5053612;28;19982;-73
2024/03/31 05:50:47;;;;;;;;;;;;;;;;;;5049867;28;19940;-72
2024/03/31 05:53:13;;;;;;;;;;;;;;;;;;5050880;28;19932;-72
2024/03/31 05:55:39;;;;;;;;;;;;;;;;;;5050852;28;19928;-73
2024/03/31 05:58:05;;;;;;;;;;;;;;;;;;5051537;28;19964;-72
2024/03/31 06:00:33;;;;;;;;;;;;;;;;;;5050237;28;19935;-73
2024/03/31 06:02:59;;;;;;;;;;;;;;;;;;5064791;28;19928;-73
2024/03/31 06:05:26;;;;;;;;;;;;;;;;;;5053009;28;19935;-73
2024/03/31 06:07:52;;;;;;;;;;;;;;;;;;5050461;28;19929;-73
2024/03/31 06:10:19;;;;;;;;;;;;;;;;;;5050276;28;19943;-72
2024/03/31 06:12:45;;;;;;;;;;;;;;;;;;5050068;28;20449;-73
2024/03/31 06:15:12;;;;;;;;;;;;;;;;;;5051725;28;19932;-72
2024/03/31 06:17:39;;;;;;;;;;;;;;;;;;5050263;28;20392;-72
2024/03/31 06:20:06;;;;;;;;;;;;;;;;;;5049715;28;19929;-72
2024/03/31 06:22:32;;;;;;;;;;;;;;;;;;5050376;28;19929;-72
2024/03/31 06:24:59;;;;;;;;;;;;;;;;;;5049951;28;19990;-72
2024/03/31 06:27:25;;;;;;;;;;;;;;;;;;5049682;28;20026;-73
2024/03/31 06:29:52;;;;;;;;;;;;;;;;;;5050219;28;19956;-72
2024/03/31 06:32:18;;;;;;;;;;;;;;;;;;5046848;28;19929;-73
2024/03/31 06:34:45;;;;;;;;;;;;;;;;;;5048381;28;19998;-73
2024/03/31 06:37:11;;;;;;;;;;;;;;;;;;5049654;28;19956;-73
2024/03/31 06:39:38;;;;;;;;;;;;;;;;;;5044756;28;19963;-72
2024/03/31 06:42:04;;;;;;;;;;;;;;;;;;5051653;28;19929;-73
2024/03/31 06:44:31;;;;;;;;;;;;;;;;;;5048712;28;19982;-73
2024/03/31 06:46:58;;;;;;;;;;;;;;;;;;5049198;28;20312;-73
2024/03/31 06:49:25;;;;;;;;;;;;;;;;;;5046403;28;20007;-73
2024/03/31 06:51:51;;;;;;;;;;;;;;;;;;5049689;28;19975;-73
2024/03/31 06:54:18;;;;;;;;;;;;;;;;;;5049813;28;19937;-73
2024/03/31 06:56:44;;;;;;;;;;;;;;;;;;5069234;28;20030;-73
2024/03/31 06:59:11;;;;;;;;;;;;;;;;;;5052307;28;20376;-73
2024/03/31 07:01:37;;;;;;;;;;;;;;;;;;5049270;28;19980;-73
2024/03/31 07:04:04;;;;;;;;;;;;;;;;;;5048627;28;20372;-73
2024/03/31 07:06:30;;;;;;;;;;;;;;;;;;5053579;28;20062;-71
2024/03/31 07:08:57;;;;;;;;;;;;;;;;;;5049329;28;20506;-72
2024/03/31 07:11:23;;;;;;;;;;;;;;;;;;5051344;28;20414;-72
2024/03/31 07:13:50;;;;;;;;;;;;;;;;;;5048449;28;19937;-72
2024/03/31 07:16:16;;;;;;;;;;;;;;;;;;5048986;28;20404;-73
2024/03/31 07:18:43;;;;;;;;;;;;;;;;;;5049205;28;19928;-73
2024/03/31 07:21:09;;;;;;;;;;;;;;;;;;5048503;28;19933;-73
2024/03/31 07:23:36;;;;;;;;;;;;;;;;;;5048531;28;20038;-73
2024/03/31 07:26:02;;;;;;;;;;;;;;;;;;5047486;28;19964;-73
2024/03/31 07:28:29;;;;;;;;;;;;;;;;;;5047844;28;20018;-74
2024/03/31 07:30:55;;;;;;;;;;;;;;;;;;5047177;28;20025;-73
2024/03/31 07:33:22;;;;;;;;;;;;;;;;;;5048209;28;19980;-73
2024/03/31 07:35:48;;;;;;;;;;;;;;;;;;5040626;28;20002;-72
2024/03/31 07:38:15;;;;;;;;;;;;;;;;;;5043782;28;19961;-73
2024/03/31 07:40:41;;;;;;;;;;;;;;;;;;5042499;28;20419;-73
2024/03/31 07:43:08;;;;;;;;;;;;;;;;;;5045649;28;19972;-72
2024/03/31 07:45:35;;;;;;;;;;;;;;;;;;5046419;28;19939;-72
2024/03/31 07:48:02;;;;;;;;;;;;;;;;;;5047122;28;19935;-73
2024/03/31 07:50:28;;;;;;;;;;;;;;;;;;5043891;28;19952;-72
2024/03/31 07:52:55;;;;;;;;;;;;;;;;;;5055971;28;19928;-72
2024/03/31 07:55:21;;;;;;;;;;;;;;;;;;5045488;28;20296;-72
2024/03/31 07:57:48;;;;;;;;;;;;;;;;;;5050667;28;19929;-72
2024/03/31 08:00:14;;;;;;;;;;;;;;;;;;5040702;28;20008;-71
2024/03/31 08:02:41;;;;;;;;;;;;;;;;;;5039915;28;19933;-71
2024/03/31 08:05:07;;;;;;;;;;;;;;;;;;5053254;28;19967;-71
2024/03/31 08:07:34;;;;;;;;;;;;;;;;;;5045585;28;19980;-73
2024/03/31 08:10:01;;;;;;;;;;;;;;;;;;5037856;28;20347;-74
2024/03/31 08:12:28;;;;;;;;;;;;;;;;;;5038446;28;20438;-73
2024/03/31 08:14:54;;;;;;;;;;;;;;;;;;5035557;28;19933;-72
2024/03/31 08:17:21;;;;;;;;;;;;;;;;;;5041838;28;19982;-74
2024/03/31 08:19:47;;;;;;;;;;;;;;;;;;5041504;28;19987;-75
2024/03/31 08:22:14;;;;;;;;;;;;;;;;;;5039039;28;19967;-76
2024/03/31 08:24:40;;;;;;;;;;;;;;;;;;5038125;28;19983;-75
2024/03/31 08:27:07;;;;;;;;;;;;;;;;;;5036104;28;19932;-76
2024/03/31 08:29:33;;;;;;;;;;;;;;;;;;5038148;28;19972;-76
2024/03/31 08:32:00;;;;;;;;;;;;;;;;;;5043831;28;20018;-76
2024/03/31 08:34:27;;;;;;;;;;;;;;;;;;5033777;28;19964;-75
2024/03/31 08:36:54;;;;;;;;;;;;;;;;;;5046203;28;19974;-71
2024/03/31 08:39:20;;;;;;;;;;;;;;;;;;5060593;28;19928;-74
2024/03/31 08:41:47;;;;;;;;;;;;;;;;;;5069046;28;20010;-74
2024/03/31 08:44:13;;;;;;;;;;;;;;;;;;5052357;28;19974;-74
2024/03/31 08:46:40;;;;;;;;;;;;;;;;;;5050630;28;19929;-75
2024/03/31 08:49:06;;;;;;;;;;;;;;;;;;5050448;28;19932;-74
2024/03/31 08:51:33;;;;;;;;;;;;;;;;;;5050436;28;19951;-76
2024/03/31 08:53:59;;;;;;;;;;;;;;;;;;5052445;28;19936;-74
2024/03/31 08:56:26;;;;;;;;;;;;;;;;;;5051489;28;20293;-75
2024/03/31 08:58:54;;;;;;;;;;;;;;;;;;5051970;28;20020;-75
2024/03/31 09:01:21;;;;;;;;;;;;;;;;;;5052163;28;20012;-76
2024/03/31 09:03:47;;;;;;;;;;;;;;;;;;5046864;28;19935;-73
2024/03/31 09:06:14;;;;;;;;;;;;;;;;;;5049069;28;19929;-73
2024/03/31 09:08:40;;;;;;;;;;;;;;;;;;5041635;28;19928;-74
2024/03/31 09:11:07;;;;;;;;;;;;;;;;;;5052296;28;19933;-74
2024/03/31 09:13:35;;;;;;;;;;;;;;;;;;5052063;28;19936;-74
2024/03/31 09:16:02;;;;;;;;;;;;;;;;;;5049985;28;19928;-74
2024/03/31 09:18:28;;;;;;;;;;;;;;;;;;5051726;28;19936;-75
2024/03/31 09:20:55;;;;;;;;;;;;;;;;;;5050699;28;19936;-74
2024/03/31 09:23:21;;;;;;;;;;;;;;;;;;5051191;28;20307;-75
2024/03/31 09:25:48;;;;;;;;;;;;;;;;;;5051477;28;19928;-74
2024/03/31 09:28:14;;;;;;;;;;;;;;;;;;5059393;28;19982;-74
2024/03/31 09:30:41;;;;;;;;;;;;;;;;;;5049071;28;19976;-75
2024/03/31 09:33:07;;;;;;;;;;;;;;;;;;5048399;28;19929;-74
2024/03/31 09:35:34;;;;;;;;;;;;;;;;;;5051342;28;19932;-73
2024/03/31 09:38:00;;;;;;;;;;;;;;;;;;5050863;28;19929;-74
2024/03/31 09:40:27;;;;;;;;;;;;;;;;;;5051368;28;20130;-74
2024/03/31 09:42:53;;;;;;;;;;;;;;;;;;5050462;28;19928;-74
2024/03/31 09:45:20;;;;;;;;;;;;;;;;;;5046475;28;19929;-74
2024/03/31 09:47:48;;;;;;;;;;;;;;;;;;5034117;28;19936;-75
2024/03/31 09:50:15;;;;;;;;;;;;;;;;;;5051400;28;19939;-74
2024/03/31 09:52:41;;;;;;;;;;;;;;;;;;5051977;28;20445;-74
2024/03/31 09:55:08;;;;;;;;;;;;;;;;;;5051747;28;20043;-74
2024/03/31 09:57:34;;;;;;;;;;;;;;;;;;5045166;28;19929;-74
2024/03/31 10:00:02;;;;;;;;;;;;;;;;;;5033129;28;19952;-74
2024/03/31 10:02:28;;;;;;;;;;;;;;;;;;5051393;28;19929;-74
2024/03/31 10:04:55;;;;;;;;;;;;;;;;;;5042251;28;19980;-74
2024/03/31 10:07:21;;;;;;;;;;;;;;;;;;5052444;28;20065;-75
2024/03/31 10:09:48;;;;;;;;;;;;;;;;;;5052048;28;19929;-74
2024/03/31 10:12:14;;;;;;;;;;;;;;;;;;5051911;28;19932;-74
2024/03/31 10:14:41;;;;;;;;;;;;;;;;;;5052164;28;19928;-75
2024/03/31 10:17:07;;;;;;;;;;;;;;;;;;5054425;28;19933;-74
2024/03/31 10:19:34;;;;;;;;;;;;;;;;;;5043868;28;19948;-75
2024/03/31 10:22:00;;;;;;;;;;;;;;;;;;5051357;28;20349;-74
2024/03/31 10:24:27;;;;;;;;;;;;;;;;;;5047814;28;19986;-75
2024/03/31 10:26:53;;;;;;;;;;;;;;;;;;5050758;28;20025;-75
2024/03/31 10:29:20;;;;;;;;;;;;;;;;;;5051042;28;19928;-74
2024/03/31 10:31:46;;;;;;;;;;;;;;;;;;5051132;28;20611;-75
2024/03/31 10:34:13;;;;;;;;;;;;;;;;;;5050740;28;19935;-74
2024/03/31 10:36:39;;;;;;;;;;;;;;;;;;5050803;28;19929;-75
2024/03/31 10:39:08;;;;;;;;;;;;;;;;;;5047264;28;19929;-74
2024/03/31 10:41:34;;;;;;;;;;;;;;;;;;5050638;28;20383;-74
2024/03/31 10:44:01;;;;;;;;;;;;;;;;;;5050304;28;19936;-76
2024/03/31 10:46:27;;;;;;;;;;;;;;;;;;5049591;28;19977;-74
2024/03/31 10:48:54;;;;;;;;;;;;;;;;;;5043297;28;19998;-75
2024/03/31 10:51:20;;;;;;;;;;;;;;;;;;5051176;28;19994;-74
2024/03/31 10:53:47;;;;;;;;;;;;;;;;;;5063091;28;19971;-74
2024/03/31 10:56:13;;;;;;;;;;;;;;;;;;5062221;28;19929;-74
2024/03/31 10:58:40;;;;;;;;;;;;;;;;;;5049018;28;19935;-74
2024/03/31 11:01:06;;;;;;;;;;;;;;;;;;5048526;28;19996;-75
2024/03/31 11:03:33;;;;;;;;;;;;;;;;;;5048454;28;20537;-74
2024/03/31 11:06:00;;;;;;;;;;;;;;;;;;5049889;28;19983;-74
2024/03/31 11:08:26;;;;;;;;;;;;;;;;;;5047785;28;20159;-75
2024/03/31 11:10:53;;;;;;;;;;;;;;;;;;5045049;28;19943;-75
2024/03/31 11:13:19;;;;;;;;;;;;;;;;;;5049751;28;20304;-75
2024/03/31 11:15:46;;;;;;;;;;;;;;;;;;5047437;28;20534;-75
2024/03/31 11:18:12;;;;;;;;;;;;;;;;;;5029830;28;20075;-74
2024/03/31 11:20:39;;;;;;;;;;;;;;;;;;5030298;28;19936;-75
2024/03/31 11:23:05;;;;;;;;;;;;;;;;;;5032529;28;20395;-76
2024/03/31 11:25:33;;;;;;;;;;;;;;;;;;5049204;28;19980;-74
2024/03/31 11:27:59;;;;;;;;;;;;;;;;;;5049355;28;19935;-75
2024/03/31 11:30:26;;;;;;;;;;;;;;;;;;5049323;28;19999;-75
2024/03/31 11:32:52;;;;;;;;;;;;;;;;;;5037597;28;19928;-74
2024/03/31 11:35:19;;;;;;;;;;;;;;;;;;5040830;28;19935;-74
2024/03/31 11:37:45;;;;;;;;;;;;;;;;;;5036897;28;20058;-75
2024/03/31 11:40:12;;;;;;;;;;;;;;;;;;5040333;28;19942;-75
2024/03/31 11:42:38;;;;;;;;;;;;;;;;;;5042170;28;19928;-75
2024/03/31 11:45:05;;;;;;;;;;;;;;;;;;5047946;28;20391;-74
2024/03/31 11:47:31;;;;;;;;;;;;;;;;;;5050626;28;20031;-75
2024/03/31 11:49:58;;;;;;;;;;;;;;;;;;5049577;28;20059;-76
2024/03/31 11:52:24;;;;;;;;;;;;;;;;;;5048614;28;20300;-75
2024/03/31 11:54:51;;;;;;;;;;;;;;;;;;5047853;28;20465;-75
2024/03/31 11:57:17;;;;;;;;;;;;;;;;;;5049837;28;20408;-75
2024/03/31 11:59:44;;;;;;;;;;;;;;;;;;5047576;28;19972;-75
2024/03/31 12:02:10;;;;;;;;;;;;;;;;;;5048374;28;20021;-75
2024/03/31 12:04:37;;;;;;;;;;;;;;;;;;5047786;28;19929;-75
2024/03/31 12:07:03;;;;;;;;;;;;;;;;;;5051520;28;19975;-75
2024/03/31 12:09:30;;;;;;;;;;;;;;;;;;5048419;28;20364;-77
2024/03/31 12:11:56;;;;;;;;;;;;;;;;;;5046948;28;19998;-76
2024/03/31 12:14:24;;;;;;;;;;;;;;;;;;5051281;28;19990;-76
2024/03/31 12:16:50;;;;;;;;;;;;;;;;;;5050546;28;20435;-76
2024/03/31 12:19:17;;;;;;;;;;;;;;;;;;5050692;28;20330;-73
2024/03/31 12:21:43;;;;;;;;;;;;;;;;;;5056896;28;19982;-75
2024/03/31 12:24:10;;;;;;;;;;;;;;;;;;5049822;28;19928;-75
2024/03/31 12:26:36;;;;;;;;;;;;;;;;;;5043055;28;20454;-75
2024/03/31 12:29:03;;;;;;;;;;;;;;;;;;5048976;28;19928;-74
2024/03/31 12:31:30;;;;;;;;;;;;;;;;;;5058510;28;19928;-74
2024/03/31 12:33:57;;;;;;;;;;;;;;;;;;5046886;28;19935;-75
2024/03/31 12:36:23;;;;;;;;;;;;;;;;;;5049943;28;20457;-74
2024/03/31 12:38:50;;;;;;;;;;;;;;;;;;5050864;28;19937;-74
2024/03/31 12:41:16;;;;;;;;;;;;;;;;;;5053452;28;20040;-74
2024/03/31 12:43:43;;;;;;;;;;;;;;;;;;5052360;28;19935;-75
2024/03/31 12:46:09;;;;;;;;;;;;;;;;;;5048449;28;19983;-74
2024/03/31 12:48:37;;;;;;;;;;;;;;;;;;5052243;28;19992;-74
2024/03/31 12:51:03;;;;;;;;;;;;;;;;;;5050677;28;20296;-74
2024/03/31 12:53:30;;;;;;;;;;;;;;;;;;5048155;28;19930;-75
2024/03/31 12:55:56;;;;;;;;;;;;;;;;;;5046486;28;19959;-75
2024/03/31 12:58:23;;;;;;;;;;;;;;;;;;5047248;28;20402;-75
2024/03/31 13:00:49;;;;;;;;;;;;;;;;;;5048247;28;20013;-75
2024/03/31 13:03:17;;;;;;;;;;;;;;;;;;5053452;28;19936;-75
2024/03/31 13:05:43;;;;;;;;;;;;;;;;;;5044422;28;20306;-75
2024/03/31 13:08:10;;;;;;;;;;;;;;;;;;5051817;28;19933;-74
2024/03/31 13:10:36;;;;;;;;;;;;;;;;;;5045700;28;19929;-75
2024/03/31 13:13:03;;;;;;;;;;;;;;;;;;5046587;28;19999;-75
2024/03/31 13:15:29;;;;;;;;;;;;;;;;;;5050029;28;19933;-74
2024/03/31 13:17:56;;;;;;;;;;;;;;;;;;5052665;28;19935;-75
2024/03/31 13:20:22;;;;;;;;;;;;;;;;;;5044876;28;19976;-75
2024/03/31 13:22:49;;;;;;;;;;;;;;;;;;5048456;28;19976;-75
2024/03/31 13:25:15;;;;;;;;;;;;;;;;;;5040325;28;20017;-75
2024/03/31 13:27:42;;;;;;;;;;;;;;;;;;5050363;28;20407;-74
2024/03/31 13:30:08;;;;;;;;;;;;;;;;;;5047953;28;19968;-76
2024/03/31 13:32:35;;;;;;;;;;;;;;;;;;5052778;28;19929;-75
2024/03/31 13:35:01;;;;;;;;;;;;;;;;;;5043795;28;20023;-75
2024/03/31 13:37:29;;;;;;;;;;;;;;;;;;5049833;28;19991;-76
2024/03/31 13:39:55;;;;;;;;;;;;;;;;;;5043225;28;19929;-76
2024/03/31 13:42:22;;;;;;;;;;;;;;;;;;5049008;28;19929;-76
2024/03/31 13:44:48;;;;;;;;;;;;;;;;;;5042177;28;19933;-76
2024/03/31 13:47:15;;;;;;;;;;;;;;;;;;5046073;28;19932;-75
2024/03/31 13:49:41;;;;;;;;;;;;;;;;;;5050363;28;19933;-76
2024/03/31 13:52:08;;;;;;;;;;;;;;;;;;5050054;28;19929;-75
2024/03/31 13:54:34;;;;;;;;;;;;;;;;;;5048439;28;20097;-75
2024/03/31 13:57:01;;;;;;;;;;;;;;;;;;5052163;28;19929;-76
2024/03/31 13:59:27;;;;;;;;;;;;;;;;;;5050604;28;20402;-76
2024/03/31 14:01:54;;;;;;;;;;;;;;;;;;5046532;28;19987;-76
2024/03/31 14:04:20;;;;;;;;;;;;;;;;;;5048365;28;19968;-76
2024/03/31 14:06:47;;;;;;;;;;;;;;;;;;5050311;28;20376;-76
2024/03/31 14:09:13;;;;;;;;;;;;;;;;;;5045585;28;19964;-76
2024/03/31 14:11:40;;;;;;;;;;;;;;;;;;5048051;28;20031;-76
2024/03/31 14:14:06;;;;;;;;;;;;;;;;;;5046194;28;19947;-75
2024/03/31 14:16:33;;;;;;;;;;;;;;;;;;5042474;28;19932;-74
2024/03/31 14:18:59;;;;;;;;;;;;;;;;;;5049637;28;19960;-76
2024/03/31 14:21:26;;;;;;;;;;;;;;;;;;5048785;28;20101;-76
2024/03/31 14:23:53;;;;;;;;;;;;;;;;;;5045173;28;20404;-75
2024/03/31 14:26:20;;;;;;;;;;;;;;;;;;5044488;28;21838;-76
2024/03/31 14:28:46;;;;;;;;;;;;;;;;;;5041569;28;20292;-76
2024/03/31 14:31:13;;;;;;;;;;;;;;;;;;5042435;28;19929;-76
2024/03/31 14:33:39;;;;;;;;;;;;;;;;;;5047638;28;19977;-76
2024/03/31 14:36:08;;;;;;;;;;;;;;;;;;5036137;28;19937;-76
2024/03/31 14:38:34;;;;;;;;;;;;;;;;;;5038131;28;19935;-77
2024/03/31 14:41:01;;;;;;;;;;;;;;;;;;5038183;28;19928;-76
2024/03/31 14:43:27;;;;;;;;;;;;;;;;;;5045635;28;20018;-76
2024/03/31 14:45:54;;;;;;;;;;;;;;;;;;5041430;28;20376;-77
2024/03/31 14:48:20;;;;;;;;;;;;;;;;;;5048588;28;19976;-76
2024/03/31 14:50:47;;;;;;;;;;;;;;;;;;5046868;28;19929;-76
2024/03/31 14:53:13;;;;;;;;;;;;;;;;;;5047530;28;20310;-76
2024/03/31 14:55:40;;;;;;;;;;;;;;;;;;5045502;28;19933;-76
2024/03/31 14:58:09;;;;;;;;;;;;;;;;;;5048923;28;19984;-76
2024/03/31 15:00:36;;;;;;;;;;;;;;;;;;5047696;28;20392;-76
2024/03/31 15:03:02;;;;;;;;;;;;;;;;;;5048993;28;19929;-75
2024/03/31 15:05:29;;;;;;;;;;;;;;;;;;5049498;28;19944;-76
2024/03/31 15:07:55;;;;;;;;;;;;;;;;;;5050651;28;20468;-75
2024/03/31 15:10:22;;;;;;;;;;;;;;;;;;5043822;28;19929;-76
2024/03/31 15:12:48;;;;;;;;;;;;;;;;;;5048299;28;19928;-76
2024/03/31 15:15:15;;;;;;;;;;;;;;;;;;5048853;28;19932;-75
2024/03/31 15:17:41;;;;;;;;;;;;;;;;;;5047239;28;20543;-76
2024/03/31 15:20:08;;;;;;;;;;;;;;;;;;5045636;28;19929;-75
2024/03/31 15:22:34;;;;;;;;;;;;;;;;;;5037889;28;20315;-76
2024/03/31 15:25:01;;;;;;;;;;;;;;;;;;5053049;28;20021;-76
2024/03/31 15:27:27;;;;;;;;;;;;;;;;;;5049676;28;19929;-76
2024/03/31 15:29:54;;;;;;;;;;;;;;;;;;5039028;28;19929;-76
2024/03/31 15:32:20;;;;;;;;;;;;;;;;;;5040357;28;19998;-76
2024/03/31 15:34:47;;;;;;;;;;;;;;;;;;5048906;28;19928;-75
2024/03/31 15:37:13;;;;;;;;;;;;;;;;;;5042222;28;20403;-76
2024/03/31 15:39:40;;;;;;;;;;;;;;;;;;5044840;28;19979;-75
2024/03/31 15:42:06;;;;;;;;;;;;;;;;;;5046572;28;20193;-75
2024/03/31 15:44:33;;;;;;;;;;;;;;;;;;5050728;28;20544;-76
2024/03/31 15:47:04;;;;;;;;;;;;;;;;;;5047993;28;19975;-75
2024/03/31 15:49:31;;;;;;;;;;;;;;;;;;5039510;28;19929;-76
2024/03/31 15:51:57;;;;;;;;;;;;;;;;;;5041400;28;19968;-75
2024/03/31 15:54:24;;;;;;;;;;;;;;;;;;5038939;28;19937;-75
2024/03/31 15:56:50;;;;;;;;;;;;;;;;;;5051876;28;19929;-75
2024/03/31 15:59:18;;;;;;;;;;;;;;;;;;5043283;28;19994;-75
2024/03/31 16:01:44;;;;;;;;;;;;;;;;;;5037712;28;19933;-75
2024/03/31 16:04:12;;;;;;;;;;;;;;;;;;5040250;28;20077;-75
2024/03/31 16:06:38;;;;;;;;;;;;;;;;;;5041595;28;19935;-75
2024/03/31 16:09:05;;;;;;;;;;;;;;;;;;5046457;28;19928;-75
2024/03/31 16:11:31;;;;;;;;;;;;;;;;;;5046814;28;19935;-75
2024/03/31 16:13:58;;;;;;;;;;;;;;;;;;5045315;28;19929;-75
2024/03/31 16:16:24;;;;;;;;;;;;;;;;;;5046702;28;19964;-75
2024/03/31 16:18:51;;;;;;;;;;;;;;;;;;5044082;28;20434;-75
2024/03/31 16:21:17;;;;;;;;;;;;;;;;;;5042481;28;19963;-75
2024/03/31 16:23:44;;;;;;;;;;;;;;;;;;5050371;28;19929;-74
2024/03/31 16:26:10;;;;;;;;;;;;;;;;;;5040242;28;20419;-76
2024/03/31 16:28:37;;;;;;;;;;;;;;;;;;5056974;28;20438;-76
2024/03/31 16:31:03;;;;;;;;;;;;;;;;;;5048513;28;19943;-75
2024/03/31 16:33:30;;;;;;;;;;;;;;;;;;5062029;28;19978;-75
2024/03/31 16:35:56;;;;;;;;;;;;;;;;;;5043816;28;19929;-76
2024/03/31 16:38:23;;;;;;;;;;;;;;;;;;5037211;28;20319;-75
2024/03/31 16:40:49;;;;;;;;;;;;;;;;;;5052181;28;20423;-75